Time,TemperatureF,DewpointF,PressureIn,WindDirection,WindDirectionDegrees,WindSpeedMPH,WindSpeedGustMPH,Humidity,HourlyPrecipIn,Conditions,Clouds,dailyrainin,SolarRadiationWatts/m^2,SoftwareType,DateUTC
2013-11-08 00:12:00,38.0,35.0,29.92,SSW,207,0.0,3.0,89,0.00,,,0.00,0,weatherlink.com 1.10,2013-11-08 05:12:00,
2013-11-08 00:27:00,37.7,35.0,29.91,SW,227,0.0,3.0,89,0.00,,,0.00,0,weatherlink.com 1.10,2013-11-08 05:27:00,
2013-11-08 00:42:00,36.7,34.0,29.91,SW,228,0.0,0.0,90,0.00,,,0.00,0,weatherlink.com 1.10,2013-11-08 05:42:00,
2013-11-08 00:57:00,36.1,34.0,29.91,SW,228,1.0,2.0,91,0.00,,,0.00,0,weatherlink.com 1.10,2013-11-08 05:57:00,
2013-11-08 01:12:00,35.8,34.0,29.92,SW,228,0.0,2.0,91,0.00,,,0.00,0,weatherlink.com 1.10,2013-11-08 06:12:00,
2013-11-08 01:27:00,35.4,33.0,29.92,SW,228,0.0,0.0,92,0.00,,,0.00,0,weatherlink.com 1.10,2013-11-08 06:27:00,
2013-11-08 01:42:00,35.1,33.0,29.93,SW,228,0.0,2.0,92,0.00,,,0.00,0,weatherlink.com 1.10,2013-11-08 06:42:00,
2013-11-08 01:57:00,35.1,33.0,29.93,SW,227,0.0,3.0,92,0.00,,,0.00,0,weatherlink.com 1.10,2013-11-08 06:57:00,
2013-11-08 02:12:00,35.2,33.0,29.93,SW,227,0.0,2.0,92,0.00,,,0.00,0,weatherlink.com 1.10,2013-11-08 07:12:00,
2013-11-08 02:27:00,34.9,33.0,29.93,SW,227,0.0,2.0,92,0.00,,,0.00,0,weatherlink.com 1.10,2013-11-08 07:27:00,
2013-11-08 02:42:00,34.6,33.0,29.94,SW,227,0.0,1.0,92,0.00,,,0.00,0,weatherlink.com 1.10,2013-11-08 07:42:00,
2013-11-08 02:57:00,34.2,32.0,29.94,SW,227,0.0,0.0,92,0.00,,,0.00,0,weatherlink.com 1.10,2013-11-08 07:57:00,
2013-11-08 03:12:00,33.7,32.0,29.95,SW,227,0.0,0.0,93,0.00,,,0.00,0,weatherlink.com 1.10,2013-11-08 08:12:00,
2013-11-08 03:27:00,33.3,32.0,29.95,SW,227,0.0,1.0,93,0.00,,,0.00,0,weatherlink.com 1.10,2013-11-08 08:27:00,
2013-11-08 03:42:00,33.4,32.0,29.95,SW,227,0.0,0.0,94,0.00,,,0.00,0,weatherlink.com 1.10,2013-11-08 08:42:00,
2013-11-08 03:57:00,33.5,32.0,29.96,SW,227,0.0,0.0,95,0.00,,,0.00,0,weatherlink.com 1.10,2013-11-08 08:57:00,
2013-11-08 04:12:00,33.7,33.0,29.96,SW,227,0.0,0.0,95,0.00,,,0.00,0,weatherlink.com 1.10,2013-11-08 09:12:00,
2013-11-08 04:27:00,33.9,33.0,29.95,SW,227,0.0,0.0,95,0.00,,,0.00,0,weatherlink.com 1.10,2013-11-08 09:27:00,
2013-11-08 04:42:00,33.9,33.0,29.96,SW,227,0.0,0.0,95,0.00,,,0.00,0,weatherlink.com 1.10,2013-11-08 09:42:00,
2013-11-08 04:57:00,34.2,33.0,29.96,SW,227,0.0,0.0,96,0.00,,,0.00,0,weatherlink.com 1.10,2013-11-08 09:57:00,
2013-11-08 05:12:00,34.4,33.0,29.97,SW,227,2.0,2.0,96,0.00,,,0.00,0,weatherlink.com 1.10,2013-11-08 10:12:00,
2013-11-08 05:27:00,34.8,34.0,29.97,SW,227,1.0,2.0,95,0.00,,,0.00,0,weatherlink.com 1.10,2013-11-08 10:27:00,
2013-11-08 05:42:00,35.4,34.0,29.98,SW,227,0.0,3.0,95,0.00,,,0.00,0,weatherlink.com 1.10,2013-11-08 10:42:00,
2013-11-08 05:57:00,35.9,34.0,29.98,SSW,192,1.0,2.0,94,0.00,,,0.00,0,weatherlink.com 1.10,2013-11-08 10:57:00,
2013-11-08 06:12:00,36.4,34.0,29.98,SSW,194,3.0,4.0,92,0.00,,,0.00,0,weatherlink.com 1.10,2013-11-08 11:12:00,
2013-11-08 06:27:00,36.9,35.0,29.99,WSW,248,1.0,5.0,91,0.00,,,0.00,0,weatherlink.com 1.10,2013-11-08 11:27:00,
2013-11-08 06:42:00,37.3,34.0,29.99,WSW,246,1.0,6.0,89,0.00,,,0.00,5,weatherlink.com 1.10,2013-11-08 11:42:00,
2013-11-08 06:57:00,37.6,34.0,30.00,West,265,0.0,2.0,88,0.00,,,0.00,12,weatherlink.com 1.10,2013-11-08 11:57:00,
2013-11-08 07:12:00,37.8,34.0,30.00,West,265,0.0,2.0,87,0.00,,,0.00,19,weatherlink.com 1.10,2013-11-08 12:12:00,
2013-11-08 07:28:00,38.2,35.0,30.01,WNW,294,1.0,6.0,87,0.00,,,0.00,32,weatherlink.com 1.10,2013-11-08 12:28:00,
2013-11-08 07:43:00,38.7,35.0,30.01,West,271,1.0,3.0,85,0.00,,,0.00,60,weatherlink.com 1.10,2013-11-08 12:43:00,
2013-11-08 07:58:00,39.1,34.0,30.02,West,259,0.0,3.0,83,0.00,,,0.00,51,weatherlink.com 1.10,2013-11-08 12:58:00,
2013-11-08 08:13:00,39.9,35.0,30.01,West,259,2.0,4.0,83,0.00,,,0.00,69,weatherlink.com 1.10,2013-11-08 13:13:00,
2013-11-08 08:28:00,40.7,35.0,30.02,West,265,1.0,6.0,81,0.00,,,0.00,144,weatherlink.com 1.10,2013-11-08 13:28:00,
2013-11-08 08:43:00,42.0,36.0,30.02,WNW,284,3.0,5.0,78,0.00,,,0.00,84,weatherlink.com 1.10,2013-11-08 13:43:00,
2013-11-08 08:58:00,42.4,35.0,30.02,West,279,0.0,6.0,75,0.00,,,0.00,107,weatherlink.com 1.10,2013-11-08 13:58:00,
2013-11-08 09:13:00,42.7,34.0,30.01,West,266,2.0,9.0,70,0.00,,,0.00,109,weatherlink.com 1.10,2013-11-08 14:13:00,
2013-11-08 09:28:00,43.5,35.0,30.01,West,275,1.0,6.0,73,0.00,,,0.00,362,weatherlink.com 1.10,2013-11-08 14:28:00,
2013-11-08 09:43:00,47.3,38.0,30.00,WSW,257,3.0,10.0,69,0.00,,,0.00,510,weatherlink.com 1.10,2013-11-08 14:43:00,
2013-11-08 09:58:00,49.5,36.0,30.00,WSW,249,8.0,11.0,59,0.00,,,0.00,585,weatherlink.com 1.10,2013-11-08 14:58:00,
2013-11-08 10:13:00,51.4,38.0,30.00,WSW,251,6.0,12.0,61,0.00,,,0.00,566,weatherlink.com 1.10,2013-11-08 15:13:00,
2013-11-08 10:28:00,52.2,38.0,30.00,West,275,4.0,8.0,59,0.00,,,0.00,598,weatherlink.com 1.10,2013-11-08 15:28:00,
2013-11-08 10:43:00,52.3,34.0,30.00,SSW,203,5.0,9.0,50,0.00,,,0.00,643,weatherlink.com 1.10,2013-11-08 15:43:00,
2013-11-08 10:58:00,51.9,35.0,30.00,WNW,288,2.0,6.0,52,0.00,,,0.00,253,weatherlink.com 1.10,2013-11-08 15:58:00,
2013-11-08 11:13:00,51.1,34.0,30.00,West,269,5.0,10.0,53,0.00,,,0.00,225,weatherlink.com 1.10,2013-11-08 16:13:00,
2013-11-08 11:28:00,48.9,33.0,29.99,WNW,284,6.0,8.0,55,0.00,,,0.00,130,weatherlink.com 1.10,2013-11-08 16:28:00,
2013-11-08 11:43:00,46.7,33.0,29.99,West,271,3.0,8.0,59,0.00,,,0.00,149,weatherlink.com 1.10,2013-11-08 16:43:00,
2013-11-08 11:58:00,46.5,33.0,29.98,SW,217,3.0,7.0,60,0.00,,,0.00,95,weatherlink.com 1.10,2013-11-08 16:58:00,
2013-11-08 12:13:00,47.0,33.0,29.97,WNW,302,4.0,10.0,58,0.00,,,0.00,255,weatherlink.com 1.10,2013-11-08 17:13:00,
2013-11-08 12:28:00,48.9,33.0,29.98,WNW,290,4.0,12.0,55,0.00,,,0.00,313,weatherlink.com 1.10,2013-11-08 17:28:00,
2013-11-08 12:43:00,50.1,34.0,29.97,NW,310,4.0,8.0,54,0.00,,,0.00,281,weatherlink.com 1.10,2013-11-08 17:43:00,
2013-11-08 12:58:00,50.6,33.0,29.97,WNW,296,1.0,5.0,51,0.00,,,0.00,454,weatherlink.com 1.10,2013-11-08 17:58:00,
2013-11-08 13:13:00,49.2,32.0,29.98,WNW,286,5.0,8.0,51,0.00,,,0.00,149,weatherlink.com 1.10,2013-11-08 18:13:00,
2013-11-08 13:28:00,48.5,32.0,29.98,WNW,285,4.0,8.0,53,0.00,,,0.00,65,weatherlink.com 1.10,2013-11-08 18:28:00,
2013-11-08 13:43:00,47.5,31.0,29.98,WNW,284,5.0,10.0,53,0.00,,,0.00,74,weatherlink.com 1.10,2013-11-08 18:43:00,
2013-11-08 13:58:00,47.4,31.0,29.99,West,261,5.0,15.0,53,0.00,,,0.00,571,weatherlink.com 1.10,2013-11-08 18:58:00,
2013-11-08 14:13:00,49.8,32.0,29.99,West,281,5.0,13.0,50,0.00,,,0.00,288,weatherlink.com 1.10,2013-11-08 19:13:00,
2013-11-08 14:28:00,50.2,30.0,30.00,WNW,292,4.0,12.0,47,0.00,,,0.00,32,weatherlink.com 1.10,2013-11-08 19:28:00,
2013-11-08 14:43:00,47.7,31.0,30.00,West,277,4.0,9.0,53,0.00,,,0.00,21,weatherlink.com 1.10,2013-11-08 19:43:00,
2013-11-08 14:58:00,45.9,30.0,30.01,SE,130,2.0,8.0,54,0.00,,,0.00,35,weatherlink.com 1.10,2013-11-08 19:58:00,
2013-11-08 15:13:00,45.5,31.0,30.03,WNW,294,5.0,11.0,58,0.00,,,0.00,84,weatherlink.com 1.10,2013-11-08 20:13:00,
2013-11-08 15:28:00,45.0,32.0,30.03,WNW,296,3.0,12.0,60,0.00,,,0.00,32,weatherlink.com 1.10,2013-11-08 20:28:00,
2013-11-08 15:43:00,44.6,30.0,30.03,NW,307,5.0,21.0,58,0.00,,,0.00,18,weatherlink.com 1.10,2013-11-08 20:43:00,
2013-11-08 15:58:00,44.2,29.0,30.04,WNW,286,5.0,12.0,56,0.00,,,0.00,14,weatherlink.com 1.10,2013-11-08 20:58:00,
2013-11-08 16:13:00,44.1,28.0,30.04,WSW,241,8.0,15.0,54,0.00,,,0.00,16,weatherlink.com 1.10,2013-11-08 21:13:00,
2013-11-08 16:28:00,43.9,28.0,30.05,WSW,248,2.0,13.0,55,0.00,,,0.00,0,weatherlink.com 1.10,2013-11-08 21:28:00,
2013-11-08 16:43:00,43.1,26.0,30.05,West,271,4.0,12.0,52,0.00,,,0.00,0,weatherlink.com 1.10,2013-11-08 21:43:00,
2013-11-08 16:59:00,42.5,25.0,30.06,SSW,198,7.0,15.0,51,0.00,,,0.00,0,weatherlink.com 1.10,2013-11-08 21:59:00,
2013-11-08 17:14:00,41.7,26.0,30.07,WNW,289,4.0,10.0,53,0.00,,,0.00,0,weatherlink.com 1.10,2013-11-08 22:14:00,
2013-11-08 17:29:00,41.6,25.0,30.08,West,270,4.0,15.0,53,0.00,,,0.00,0,weatherlink.com 1.10,2013-11-08 22:29:00,
2013-11-08 17:44:00,41.1,25.0,30.09,SSW,201,2.0,7.0,54,0.00,,,0.00,0,weatherlink.com 1.10,2013-11-08 22:44:00,
2013-11-08 17:59:00,40.7,26.0,30.10,WNW,288,1.0,7.0,56,0.00,,,0.00,0,weatherlink.com 1.10,2013-11-08 22:59:00,
2013-11-08 18:14:00,40.5,26.0,30.11,SW,232,3.0,5.0,56,0.00,,,0.00,0,weatherlink.com 1.10,2013-11-08 23:14:00,
2013-11-08 18:29:00,40.5,26.0,30.11,West,271,2.0,5.0,56,0.00,,,0.00,0,weatherlink.com 1.10,2013-11-08 23:29:00,
2013-11-08 18:44:00,40.2,26.0,30.12,WSW,250,6.0,11.0,58,0.00,,,0.00,0,weatherlink.com 1.10,2013-11-08 23:44:00,
2013-11-08 18:59:00,40.0,27.0,30.12,West,259,1.0,6.0,59,0.00,,,0.00,0,weatherlink.com 1.10,2013-11-08 23:59:00,
2013-11-08 19:14:00,40.0,27.0,30.13,SW,224,4.0,10.0,59,0.00,,,0.00,0,weatherlink.com 1.10,2013-11-09 00:14:00,
2013-11-08 19:29:00,39.4,26.0,30.13,West,276,3.0,8.0,60,0.00,,,0.00,0,weatherlink.com 1.10,2013-11-09 00:29:00,
2013-11-08 19:44:00,38.9,27.0,30.14,West,264,6.0,7.0,62,0.00,,,0.00,0,weatherlink.com 1.10,2013-11-09 00:44:00,
2013-11-08 19:59:00,38.8,27.0,30.14,West,271,3.0,7.0,63,0.00,,,0.00,0,weatherlink.com 1.10,2013-11-09 00:59:00,
2013-11-08 20:14:00,38.3,27.0,30.15,West,260,2.0,6.0,64,0.00,,,0.00,0,weatherlink.com 1.10,2013-11-09 01:14:00,
2013-11-08 20:29:00,38.2,27.0,30.15,West,279,2.0,7.0,65,0.00,,,0.00,0,weatherlink.com 1.10,2013-11-09 01:29:00,
2013-11-08 20:44:00,38.2,27.0,30.16,WNW,286,3.0,7.0,65,0.00,,,0.00,0,weatherlink.com 1.10,2013-11-09 01:44:00,
2013-11-08 20:59:00,38.0,27.0,30.17,West,266,1.0,6.0,66,0.00,,,0.00,0,weatherlink.com 1.10,2013-11-09 01:59:00,
2013-11-08 21:14:00,37.7,28.0,30.17,West,259,3.0,7.0,67,0.00,,,0.00,0,weatherlink.com 1.10,2013-11-09 02:14:00,
2013-11-08 21:29:00,37.5,28.0,30.17,West,262,3.0,5.0,68,0.00,,,0.00,0,weatherlink.com 1.10,2013-11-09 02:29:00,
2013-11-08 21:44:00,37.4,28.0,30.18,WNW,288,3.0,5.0,69,0.00,,,0.00,0,weatherlink.com 1.10,2013-11-09 02:44:00,
2013-11-08 21:59:00,37.3,28.0,30.17,West,280,2.0,8.0,69,0.00,,,0.00,0,weatherlink.com 1.10,2013-11-09 02:59:00,
2013-11-08 22:14:00,37.0,28.0,30.18,NW,306,1.0,5.0,70,0.00,,,0.00,0,weatherlink.com 1.10,2013-11-09 03:14:00,
2013-11-08 22:29:00,36.8,28.0,30.18,WNW,284,1.0,6.0,71,0.00,,,0.00,0,weatherlink.com 1.10,2013-11-09 03:29:00,
2013-11-08 22:44:00,36.7,28.0,30.18,West,266,2.0,7.0,72,0.00,,,0.00,0,weatherlink.com 1.10,2013-11-09 03:44:00,
2013-11-08 22:59:00,36.4,28.0,30.18,West,263,3.0,5.0,72,0.00,,,0.00,0,weatherlink.com 1.10,2013-11-09 03:59:00,
2013-11-08 23:14:00,36.2,28.0,30.18,West,264,2.0,7.0,73,0.00,,,0.00,0,weatherlink.com 1.10,2013-11-09 04:14:00,
2013-11-08 23:29:00,36.1,28.0,30.19,WSW,254,2.0,7.0,73,0.00,,,0.00,0,weatherlink.com 1.10,2013-11-09 04:29:00,
2013-11-08 23:44:00,35.7,28.0,30.19,SW,224,2.0,7.0,74,0.00,,,0.00,0,weatherlink.com 1.10,2013-11-09 04:44:00,
2013-11-08 23:59:00,35.3,28.0,30.19,WSW,250,2.0,4.0,74,0.00,,,0.00,0,weatherlink.com 1.10,2013-11-09 04:59:00,